Main page
METAR-TAF:

METAR-TAF

Airports :

Montichiari

Brescia, Italy

latitude: 45-24-02N, longitude: 010-18-59E, elevation: 104 m

Current weather observation

The report was made 17 minutes ago, at 14:20 UTC
Wind 3 kt from variable directions
Temperature 29°C
Humidity 45%
Pressure 1016 hPa
Visibility 10 km or more

METAR: LIPO 171420Z AUTO VRB03KT 9999 BKN053/// 29/16 Q1016

Time: 16:37 (14:37 UTC)

Forecast

The report was made 3 hours and 37 minutes ago, at 11:00 UTC
Forecast valid from 17 at 12 UTC to 18 at 12 UTC
Wind 3 kt from variable directions
Visibility 10 km or more
Few clouds at a height of 3500 ft

TAF: LIPO 171100Z 1712/1812 VRB03KT 9999 FEW035

Weather observations and forecasts of more than 4000 airports (METAR and TAF reports).

The available stations are represented by yellow and red dots on the map.

Hover mouse over dot to see the name of the station.

Then click to see weather observations and forecasts.

To change the map : click on the green buttons with a black cross to zoom in, on the green button with a dash to zoom out, or on the green arrows for adjacent maps.


METAR-TAF: